Ekwok Airport


Codes: KEK/KEK
Name: Ekwok Airport
City: Ekwok
Country: United States
Elevation: 135 ft.

Photos at Ekwok Airport


   Photos courtesy of SpottingLog. You can add your own sightings and photos by signing up for a free trial today.



No photos found.

Weather at Ekwok Airport


Time (UTC)DescriptionTempratureWindCloud coverageVisibilityPressureHumidity
19-Apr-2024 03:00Overcast Clouds3°C38 mph, E100%10000m1013hPa87%
19-Apr-2024 06:00Overcast Clouds3°C34 mph, E100%10000m1013hPa84%
19-Apr-2024 09:00Overcast Clouds3°C34 mph, E100%10000m1013hPa84%
19-Apr-2024 12:00Overcast Clouds3°C36 mph, E100%10000m1014hPa83%
19-Apr-2024 15:00Overcast Clouds3°C34 mph, E100%10000m1013hPa81%
19-Apr-2024 18:00Overcast Clouds3°C34 mph, E100%10000m1014hPa79%
19-Apr-2024 21:00Overcast Clouds5°C31 mph, E100%10000m1013hPa71%
20-Apr-2024 00:00Overcast Clouds6°C36 mph, E100%10000m1012hPa66%
20-Apr-2024 03:00Overcast Clouds5°C40 mph, E100%10000m1010hPa70%
20-Apr-2024 06:00Overcast Clouds4°C38 mph, E100%10000m1010hPa78%
20-Apr-2024 09:00Overcast Clouds4°C34 mph, E100%10000m1010hPa75%
20-Apr-2024 12:00Overcast Clouds3°C25 mph, E100%10000m1011hPa83%
20-Apr-2024 15:00Overcast Clouds3°C22 mph, E100%10000m1010hPa84%
20-Apr-2024 18:00Overcast Clouds5°C25 mph, E100%10000m1010hPa76%
20-Apr-2024 21:00Overcast Clouds7°C29 mph, E100%10000m1010hPa64%
21-Apr-2024 00:00Overcast Clouds7°C27 mph, E100%10000m1009hPa65%
21-Apr-2024 03:00Overcast Clouds7°C25 mph, E100%10000m1008hPa61%
21-Apr-2024 06:00Overcast Clouds5°C20 mph, NE100%10000m1008hPa67%
21-Apr-2024 09:00Overcast Clouds4°C22 mph, NE100%10000m1008hPa83%
21-Apr-2024 12:00Overcast Clouds4°C16 mph, E100%10000m1008hPa90%
21-Apr-2024 15:00Overcast Clouds3°C9 mph, NE100%10000m1008hPa92%
21-Apr-2024 18:00Overcast Clouds4°C9 mph, NE100%10000m1008hPa81%
21-Apr-2024 21:00Light Rain6°C13 mph, NE100%10000m1009hPa81%
22-Apr-2024 00:00Light Rain7°C18 mph, NE100%10000m1009hPa72%
22-Apr-2024 03:00Light Rain5°C18 mph, E100%10000m1010hPa86%
22-Apr-2024 06:00Light Snow2°C13 mph, SE100%25m1012hPa99%
22-Apr-2024 09:00Light Snow1°C13 mph, SE100%8546m1014hPa93%
22-Apr-2024 12:00Overcast Clouds1°C11 mph, SE100%10000m1015hPa92%
22-Apr-2024 15:00Overcast Clouds1°C9 mph, SE99%10000m1016hPa86%
22-Apr-2024 18:00Broken Clouds3°C9 mph, E82%10000m1016hPa75%
22-Apr-2024 21:00Scattered Clouds6°C9 mph, SE49%10000m1015hPa57%
23-Apr-2024 00:00Light Rain7°C9 mph, S74%10000m1015hPa49%
23-Apr-2024 03:00Light Rain7°C7 mph, S100%10000m1014hPa54%
23-Apr-2024 06:00Overcast Clouds5°C4 mph, E100%10000m1014hPa69%
23-Apr-2024 09:00Overcast Clouds3°C9 mph, NE100%10000m1015hPa81%
23-Apr-2024 12:00Overcast Clouds1°C9 mph, NE92%10000m1014hPa91%
23-Apr-2024 15:00Broken Clouds0°C9 mph, NE63%10000m1013hPa95%
23-Apr-2024 18:00Broken Clouds4°C13 mph, E81%10000m1012hPa78%
23-Apr-2024 21:00Overcast Clouds7°C13 mph, E99%10000m1011hPa61%
24-Apr-2024 00:00Overcast Clouds9°C11 mph, E100%10000m1009hPa52%